createdAt,value
2018-04-28T00:01:34.394Z,15.84
2018-04-28T00:04:02.068Z,15.76
2018-04-28T00:06:29.676Z,15.79
2018-04-28T00:08:57.435Z,15.88
2018-04-28T00:11:25.064Z,15.88
2018-04-28T00:13:52.719Z,15.88
2018-04-28T00:16:23.121Z,15.82
2018-04-28T00:19:07.868Z,15.85
2018-04-28T00:21:37.179Z,15.79
2018-04-28T00:24:04.844Z,15.82
2018-04-28T00:26:32.473Z,15.84
2018-04-28T00:29:01.873Z,15.82
2018-04-28T00:34:44.896Z,15.75
2018-04-28T00:37:18.417Z,15.63
2018-04-28T00:39:52.216Z,15.63
2018-04-28T00:42:39.481Z,15.65
2018-04-28T00:45:11.062Z,15.59
2018-04-28T00:47:38.793Z,15.49
2018-04-28T00:50:09.456Z,15.43
2018-04-28T00:52:37.185Z,15.36
2018-04-28T00:55:12.820Z,15.45
2018-04-28T00:57:56.294Z,15.40
2018-04-28T01:00:42.737Z,15.35
2018-04-28T01:03:10.559Z,15.29
2018-04-28T01:05:49.166Z,15.21
2018-04-28T01:08:19.280Z,15.13
2018-04-28T01:10:51.507Z,15.19
2018-04-28T01:13:20.239Z,15.19
2018-04-28T01:15:48.099Z,15.20
2018-04-28T01:18:25.645Z,15.15
2018-04-28T01:34:30.476Z,15.25
2018-04-28T01:37:14.808Z,15.23
2018-04-28T01:39:42.802Z,15.18
2018-04-28T01:45:31.797Z,15.02
2018-04-28T01:48:14.028Z,15.05
2018-04-28T01:50:58.521Z,15.14
2018-04-28T01:53:41.700Z,15.23
2018-04-28T01:56:15.046Z,15.24
2018-04-28T01:58:43.462Z,15.22
2018-04-28T02:01:22.454Z,15.15
2018-04-28T02:03:56.873Z,15.15
2018-04-28T02:09:23.513Z,15.23
2018-04-28T02:11:57.913Z,15.24
2018-04-28T02:14:29.302Z,15.26
2018-04-28T02:17:01.346Z,15.21
2018-04-28T02:22:53.936Z,14.95
2018-04-28T02:25:22.280Z,14.93
2018-04-28T02:31:09.086Z,14.94
2018-04-28T02:36:54.430Z,14.85
2018-04-28T02:39:23.088Z,14.86
2018-04-28T02:41:55.200Z,14.89
2018-04-28T02:44:43.502Z,14.78
2018-04-28T02:47:23.680Z,14.71
2018-04-28T02:50:03.534Z,14.67
2018-04-28T02:55:31.014Z,14.41
2018-04-28T02:57:59.433Z,14.39
2018-04-28T03:00:34.880Z,14.44
2018-04-28T03:03:06.186Z,14.47
2018-04-28T03:05:33.916Z,14.42
2018-04-28T03:08:03.478Z,14.43
2018-04-28T03:10:33.192Z,14.38
2018-04-28T03:13:00.939Z,14.37
2018-04-28T03:15:28.649Z,14.38
2018-04-28T03:17:59.055Z,14.32
2018-04-28T03:20:29.085Z,14.31
2018-04-28T03:23:00.550Z,14.31
2018-04-28T03:25:33.602Z,14.11
2018-04-28T03:31:15.788Z,13.86
2018-04-28T03:33:45.332Z,13.86
2018-04-28T03:39:38.484Z,13.82
2018-04-28T03:42:06.282Z,13.86
2018-04-28T03:44:36.881Z,13.89
2018-04-28T03:47:09.422Z,13.82
2018-04-28T03:49:38.794Z,13.84
2018-04-28T03:52:14.389Z,13.87
2018-04-28T03:54:42.864Z,13.79
2018-04-28T04:00:24.413Z,13.77
2018-04-28T04:03:03.959Z,13.76
2018-04-28T04:19:26.897Z,13.90
2018-04-28T04:21:59.098Z,13.72
2018-04-28T04:27:50.644Z,13.66
2018-04-28T04:30:42.132Z,13.59
2018-04-28T04:36:26.741Z,13.72
2018-04-28T04:38:55.267Z,13.72
2018-04-28T04:41:47.481Z,13.74
2018-04-28T04:44:36.934Z,13.79
2018-04-28T04:47:12.375Z,13.81
2018-04-28T04:50:06.688Z,13.78
2018-04-28T04:52:41.307Z,13.78
2018-04-28T04:55:19.100Z,13.85
2018-04-28T05:01:15.951Z,13.88
2018-04-28T05:03:49.278Z,13.86
2018-04-28T05:09:56.621Z,13.84
2018-04-28T05:12:35.032Z,13.89
2018-04-28T05:18:10.444Z,13.84
2018-04-28T05:34:21.636Z,14.02
2018-04-28T05:36:55.275Z,14.09
2018-04-28T05:39:34.407Z,14.07
2018-04-28T05:42:12.549Z,13.92
2018-04-28T05:44:50.790Z,13.98
2018-04-28T06:01:11.158Z,13.87
2018-04-28T06:03:56.379Z,13.90
2018-04-28T06:06:32.666Z,13.91
2018-04-28T06:09:06.163Z,13.96
2018-04-28T06:11:45.284Z,14.02
2018-04-28T06:14:18.545Z,14.03
2018-04-28T06:16:55.627Z,14.06
2018-04-28T06:22:45.524Z,14.14
2018-04-28T06:25:13.245Z,14.19
2018-04-28T06:27:41.669Z,14.20
2018-04-28T06:30:09.384Z,14.20
2018-04-28T06:32:40.059Z,14.19
2018-04-28T06:35:09.562Z,14.26
2018-04-28T06:37:37.438Z,14.35
2018-04-28T06:40:05.195Z,14.30
2018-04-28T06:42:34.059Z,14.27
2018-04-28T06:45:01.861Z,14.30
2018-04-28T06:47:31.587Z,14.19
2018-04-28T06:49:59.429Z,14.15
2018-04-28T06:52:27.076Z,14.14
2018-04-28T06:54:54.773Z,14.24
2018-04-28T06:57:22.674Z,14.19
2018-04-28T06:59:50.311Z,14.14
2018-04-28T07:02:18.502Z,14.25
2018-04-28T07:04:46.327Z,14.29
2018-04-28T07:07:14.246Z,14.32
2018-04-28T07:09:43.613Z,14.21
2018-04-28T07:12:11.684Z,14.21
2018-04-28T07:14:39.347Z,14.31
2018-04-28T07:17:07.086Z,14.43
2018-04-28T07:19:34.782Z,14.39
2018-04-28T07:22:02.439Z,14.43
2018-04-28T07:24:31.115Z,14.58
2018-04-28T07:26:59.125Z,14.57
2018-04-28T07:29:26.870Z,14.57
2018-04-28T07:31:54.556Z,14.65
2018-04-28T07:34:23.707Z,14.57
2018-04-28T07:36:51.585Z,14.71
2018-04-28T07:39:19.320Z,14.75
2018-04-28T07:41:50.068Z,14.88
2018-04-28T07:44:17.765Z,14.94
2018-04-28T07:46:45.639Z,14.95
2018-04-28T07:49:14.787Z,14.90
2018-04-28T07:51:42.499Z,14.85
2018-04-28T07:54:10.442Z,14.75
2018-04-28T07:56:39.035Z,14.80
2018-04-28T07:59:07.076Z,14.85
2018-04-28T08:01:35.034Z,14.97
2018-04-28T08:04:02.717Z,14.94
2018-04-28T08:06:30.561Z,15.12
2018-04-28T08:08:58.255Z,15.15
2018-04-28T08:11:26.153Z,15.19
2018-04-28T08:13:53.798Z,15.33
2018-04-28T08:16:21.414Z,15.25
2018-04-28T08:18:49.040Z,15.35
2018-04-28T08:21:17.017Z,15.30
2018-04-28T08:23:44.581Z,15.29
2018-04-28T08:26:12.634Z,15.14
2018-04-28T08:28:40.292Z,15.13
2018-04-28T08:31:08.459Z,15.20
2018-04-28T08:33:36.191Z,15.33
2018-04-28T08:36:04.057Z,15.31
2018-04-28T08:38:31.772Z,15.28
2018-04-28T08:40:59.431Z,15.28
2018-04-28T08:43:27.154Z,15.46
2018-04-28T08:45:54.842Z,15.71
2018-04-28T08:48:22.433Z,15.73
2018-04-28T08:50:50.236Z,15.72
2018-04-28T08:53:18.032Z,15.67
2018-04-28T08:55:45.682Z,15.66
2018-04-28T08:58:13.348Z,15.72
2018-04-28T09:00:47.364Z,15.67
2018-04-28T09:03:15.073Z,15.67
2018-04-28T09:05:42.830Z,15.68
2018-04-28T09:08:10.770Z,15.83
2018-04-28T09:10:38.420Z,15.77
2018-04-28T09:13:06.434Z,15.75
2018-04-28T09:15:34.472Z,15.87
2018-04-28T09:18:02.327Z,15.96
2018-04-28T09:20:30.405Z,16.02
2018-04-28T09:22:58.192Z,16.18
2018-04-28T09:25:25.826Z,16.47
2018-04-28T09:27:53.533Z,16.38
2018-04-28T09:30:21.215Z,16.36
2018-04-28T09:32:49.071Z,16.36
2018-04-28T09:35:16.746Z,16.27
2018-04-28T09:37:44.381Z,16.14
2018-04-28T09:40:12.080Z,16.25
2018-04-28T09:42:39.710Z,16.06
2018-04-28T09:45:07.506Z,16.16
2018-04-28T09:47:35.184Z,16.27
2018-04-28T09:50:02.872Z,16.36
2018-04-28T09:52:30.541Z,16.46
2018-04-28T09:54:58.384Z,16.56
2018-04-28T09:57:26.250Z,16.58
2018-04-28T09:59:54.037Z,16.93
2018-04-28T10:02:21.650Z,16.91
2018-04-28T10:04:49.352Z,16.97
2018-04-28T10:07:16.980Z,17.07
2018-04-28T10:09:44.696Z,17.03
2018-04-28T10:12:12.421Z,17.08
2018-04-28T10:14:40.070Z,17.24
2018-04-28T10:17:07.712Z,17.22
2018-04-28T10:19:35.460Z,17.51
2018-04-28T10:22:03.194Z,17.45
2018-04-28T10:24:30.915Z,17.32
2018-04-28T10:26:58.633Z,17.30
2018-04-28T10:29:26.293Z,17.06
2018-04-28T10:31:53.948Z,17.25
2018-04-28T10:34:21.613Z,17.22
2018-04-28T10:36:49.323Z,17.35
2018-04-28T10:39:17.019Z,17.53
2018-04-28T10:41:44.701Z,17.50
2018-04-28T10:44:12.320Z,17.29
2018-04-28T10:46:40.092Z,17.14
2018-04-28T10:49:07.771Z,17.26
2018-04-28T10:51:35.520Z,17.22
2018-04-28T10:54:03.520Z,17.17
2018-04-28T10:56:31.286Z,17.15
2018-04-28T10:58:58.951Z,17.22
2018-04-28T11:01:26.742Z,17.33
2018-04-28T11:03:54.365Z,17.60
2018-04-28T11:06:21.990Z,17.57
2018-04-28T11:08:49.830Z,17.78
2018-04-28T11:11:17.549Z,17.83
2018-04-28T11:13:45.255Z,18.05
2018-04-28T11:16:13.040Z,18.16
2018-04-28T11:18:40.813Z,18.69
2018-04-28T11:21:08.503Z,18.67
2018-04-28T11:23:36.252Z,19.05
2018-04-28T11:26:03.878Z,18.89
2018-04-28T11:28:31.554Z,18.51
2018-04-28T11:30:59.169Z,18.21
2018-04-28T11:33:26.791Z,18.71
2018-04-28T11:35:54.473Z,18.88
2018-04-28T11:38:22.101Z,19.18
2018-04-28T11:40:49.844Z,18.96
2018-04-28T11:43:17.446Z,18.62
2018-04-28T11:45:45.190Z,18.72
2018-04-28T11:48:12.814Z,18.38
2018-04-28T11:50:40.474Z,18.25
2018-04-28T11:53:08.085Z,18.27
2018-04-28T11:55:35.753Z,18.19
2018-04-28T11:58:03.394Z,18.30
2018-04-28T12:00:31.070Z,18.71
2018-04-28T12:02:58.768Z,19.48
2018-04-28T12:05:26.425Z,20.12
2018-04-28T12:07:54.034Z,20.17
2018-04-28T12:10:21.708Z,19.65
2018-04-28T12:12:49.353Z,19.07
2018-04-28T12:15:17.173Z,18.75
2018-04-28T12:17:44.857Z,18.52
2018-04-28T12:20:12.477Z,18.41
2018-04-28T12:22:40.270Z,18.35
2018-04-28T12:25:07.902Z,18.47
2018-04-28T12:27:35.702Z,18.69
2018-04-28T12:30:03.444Z,19.05
2018-04-28T12:32:31.025Z,19.04
2018-04-28T12:34:58.663Z,19.27
2018-04-28T12:37:26.353Z,19.32
2018-04-28T12:39:53.988Z,19.17
2018-04-28T12:42:21.636Z,19.84
2018-04-28T12:44:49.235Z,19.63
2018-04-28T12:47:16.933Z,19.17
2018-04-28T12:49:44.551Z,18.93
2018-04-28T12:52:12.373Z,18.85
2018-04-28T12:54:40.056Z,18.84
2018-04-28T12:57:07.787Z,18.88
2018-04-28T12:59:35.466Z,18.84
2018-04-28T13:02:03.205Z,18.59
2018-04-28T13:04:30.843Z,18.58
2018-04-28T13:06:58.477Z,18.57
2018-04-28T13:09:26.116Z,18.39
2018-04-28T13:11:53.759Z,18.28
2018-04-28T13:14:21.423Z,18.24
2018-04-28T13:16:49.101Z,18.28
2018-04-28T13:19:16.799Z,18.30
2018-04-28T13:21:44.444Z,18.29
2018-04-28T13:24:12.129Z,18.38
2018-04-28T13:26:39.753Z,18.45
2018-04-28T13:29:07.526Z,18.88
2018-04-28T13:31:35.156Z,18.84
2018-04-28T13:34:02.828Z,18.65
2018-04-28T13:36:30.456Z,18.55
2018-04-28T13:38:58.130Z,18.49
2018-04-28T13:41:25.745Z,18.66
2018-04-28T13:43:53.368Z,18.56
2018-04-28T13:46:21.026Z,18.67
2018-04-28T13:48:48.633Z,18.76
2018-04-28T13:51:16.309Z,18.88
2018-04-28T13:53:43.947Z,18.93
2018-04-28T13:56:11.690Z,19.01
2018-04-28T13:58:39.321Z,19.00
2018-04-28T14:01:06.976Z,19.16
2018-04-28T14:03:34.589Z,19.57
2018-04-28T14:06:02.248Z,20.00
2018-04-28T14:08:29.941Z,20.11
2018-04-28T14:10:57.611Z,19.99
2018-04-28T14:13:25.231Z,20.02
2018-04-28T14:15:52.928Z,19.89
2018-04-28T14:18:20.557Z,19.94
2018-04-28T14:20:48.193Z,20.07
2018-04-28T14:23:15.880Z,20.42
2018-04-28T14:25:43.528Z,20.83
2018-04-28T14:28:11.188Z,20.53
2018-04-28T14:30:38.851Z,19.97
2018-04-28T14:33:06.471Z,19.83
2018-04-28T14:35:34.251Z,19.66
2018-04-28T14:38:01.884Z,19.83
2018-04-28T14:40:29.484Z,19.78
2018-04-28T14:42:57.121Z,19.76
2018-04-28T14:45:27.166Z,19.71
2018-04-28T14:47:54.805Z,19.68
2018-04-28T14:50:22.416Z,19.77
2018-04-28T14:52:50.100Z,19.92
2018-04-28T14:55:17.659Z,19.87
2018-04-28T14:57:45.377Z,20.22
2018-04-28T15:00:12.960Z,20.35
2018-04-28T15:02:40.653Z,20.17
2018-04-28T15:05:08.349Z,19.97
2018-04-28T15:07:35.983Z,20.36
2018-04-28T15:10:03.594Z,20.46
2018-04-28T15:12:31.264Z,20.09
2018-04-28T15:14:58.873Z,19.96
2018-04-28T15:17:26.523Z,19.85
2018-04-28T15:19:54.147Z,19.70
2018-04-28T15:22:21.801Z,19.77
2018-04-28T15:24:49.444Z,19.59
2018-04-28T15:27:17.091Z,19.67
2018-04-28T15:29:44.757Z,19.64
2018-04-28T15:32:12.357Z,19.60
2018-04-28T15:34:40.183Z,19.53
2018-04-28T15:37:07.785Z,19.55
2018-04-28T15:39:35.429Z,19.58
2018-04-28T15:42:03.026Z,19.50
2018-04-28T15:44:30.670Z,19.29
2018-04-28T15:46:58.257Z,19.31
2018-04-28T15:49:25.976Z,19.32
2018-04-28T15:51:53.610Z,19.31
2018-04-28T15:54:21.346Z,19.29
2018-04-28T15:56:48.953Z,19.14
2018-04-28T15:59:16.585Z,19.11
2018-04-28T16:01:44.314Z,19.16
2018-04-28T16:04:11.938Z,19.19
2018-04-28T16:06:39.548Z,19.04
2018-04-28T16:09:07.183Z,19.04
2018-04-28T16:11:34.817Z,19.11
2018-04-28T16:14:02.409Z,19.20
2018-04-28T16:16:30.101Z,19.18
2018-04-28T16:18:57.708Z,19.06
2018-04-28T16:21:25.337Z,18.99
2018-04-28T16:23:53.073Z,18.96
2018-04-28T16:26:20.709Z,18.89
2018-04-28T16:28:48.307Z,18.85
2018-04-28T16:31:15.969Z,18.88
2018-04-28T16:33:43.689Z,18.86
2018-04-28T16:36:11.346Z,18.89
2018-04-28T16:38:38.954Z,18.95
2018-04-28T16:41:06.604Z,18.85
2018-04-28T16:43:34.196Z,18.87
2018-04-28T16:46:01.919Z,18.83
2018-04-28T16:48:29.556Z,18.85
2018-04-28T16:50:57.175Z,18.74
2018-04-28T16:53:24.849Z,18.73
2018-04-28T16:55:52.457Z,18.74
2018-04-28T16:58:20.113Z,18.63
2018-04-28T17:00:47.717Z,18.65
2018-04-28T17:03:15.340Z,18.63
2018-04-28T17:05:42.956Z,18.62
2018-04-28T17:08:10.600Z,18.60
2018-04-28T17:10:38.243Z,18.58
2018-04-28T17:13:05.892Z,18.59
2018-04-28T17:15:33.557Z,18.56
2018-04-28T17:18:01.266Z,18.47
2018-04-28T17:20:28.981Z,18.35
2018-04-28T17:22:56.620Z,18.22
2018-04-28T17:25:24.213Z,18.15
2018-04-28T17:27:51.876Z,17.93
2018-04-28T17:30:19.504Z,17.77
2018-04-28T17:32:47.104Z,17.73
2018-04-28T17:35:14.742Z,17.66
2018-04-28T17:37:42.337Z,17.37
2018-04-28T17:40:10.000Z,17.29
2018-04-28T17:42:37.608Z,17.33
2018-04-28T17:45:05.246Z,17.44
2018-04-28T17:47:32.841Z,17.45
2018-04-28T17:50:00.532Z,17.46
2018-04-28T17:52:28.283Z,17.50
2018-04-28T17:54:55.953Z,17.37
2018-04-28T17:57:23.561Z,17.37
2018-04-28T17:59:51.261Z,17.41
2018-04-28T18:02:18.879Z,17.32
2018-04-28T18:04:46.542Z,17.30
2018-04-28T18:07:14.351Z,17.28
2018-04-28T18:09:41.980Z,17.19
2018-04-28T18:12:09.605Z,17.16
2018-04-28T18:14:37.359Z,17.12
2018-04-28T18:17:04.944Z,17.16
2018-04-28T18:19:32.601Z,17.14
2018-04-28T18:22:00.272Z,17.11
2018-04-28T18:24:27.914Z,17.13
2018-04-28T18:26:55.570Z,17.08
2018-04-28T18:29:23.248Z,17.09
2018-04-28T18:31:50.889Z,17.01
2018-04-28T18:34:18.531Z,17.01
2018-04-28T18:36:46.219Z,16.96
2018-04-28T18:39:13.816Z,16.99
2018-04-28T18:41:41.582Z,16.96
2018-04-28T18:44:09.193Z,17.02
2018-04-28T18:46:36.924Z,17.02
2018-04-28T18:49:04.528Z,17.04
2018-04-28T18:51:32.216Z,17.04
2018-04-28T18:53:59.831Z,17.04
2018-04-28T18:56:27.493Z,17.10
2018-04-28T18:58:55.167Z,17.14
2018-04-28T19:01:22.821Z,17.17
2018-04-28T19:03:50.538Z,17.19
2018-04-28T19:06:18.171Z,17.21
2018-04-28T19:08:45.849Z,17.23
2018-04-28T19:11:13.444Z,17.21
2018-04-28T19:13:41.173Z,17.21
2018-04-28T19:16:08.833Z,17.11
2018-04-28T19:18:36.490Z,16.95
2018-04-28T19:21:04.164Z,16.76
2018-04-28T19:23:31.810Z,16.68
2018-04-28T19:25:59.407Z,16.60
2018-04-28T19:28:27.313Z,16.60
2018-04-28T19:30:54.976Z,16.62
2018-04-28T19:33:22.628Z,16.65
2018-04-28T19:35:50.240Z,16.69
2018-04-28T19:38:17.913Z,16.69
2018-04-28T19:40:45.562Z,16.71
2018-04-28T19:43:13.205Z,16.82
2018-04-28T19:45:40.809Z,16.87
2018-04-28T19:48:08.505Z,16.96
2018-04-28T19:50:36.132Z,16.85
2018-04-28T19:53:03.825Z,16.67
2018-04-28T19:55:31.503Z,16.51
2018-04-28T19:57:59.190Z,16.55
2018-04-28T20:00:26.903Z,16.58
2018-04-28T20:02:54.503Z,16.69
2018-04-28T20:05:22.196Z,16.66
2018-04-28T20:07:49.815Z,16.65
2018-04-28T20:10:17.515Z,16.65
2018-04-28T20:12:45.173Z,16.58
2018-04-28T20:15:12.848Z,16.34
2018-04-28T20:17:40.494Z,16.30
2018-04-28T20:20:08.210Z,16.39
2018-04-28T20:22:47.437Z,16.46
2018-04-28T20:25:29.873Z,16.47
2018-04-28T20:27:57.490Z,16.50
2018-04-28T20:30:25.150Z,16.46
2018-04-28T20:32:52.782Z,16.50
2018-04-28T20:35:20.460Z,16.56
2018-04-28T20:37:48.062Z,16.45
2018-04-28T20:40:15.672Z,16.39
2018-04-28T20:42:43.326Z,16.36
2018-04-28T20:45:11.001Z,16.41
2018-04-28T20:47:38.625Z,16.49
2018-04-28T20:50:06.298Z,16.49
2018-04-28T20:52:33.940Z,16.50
2018-04-28T20:55:01.557Z,16.45
2018-04-28T20:57:29.188Z,16.37
2018-04-28T20:59:56.828Z,16.36
2018-04-28T21:02:24.512Z,16.41
2018-04-28T21:04:52.135Z,16.37
2018-04-28T21:07:19.797Z,16.36
2018-04-28T21:09:47.423Z,16.31
2018-04-28T21:12:15.122Z,16.29
2018-04-28T21:14:42.731Z,16.17
2018-04-28T21:17:10.366Z,16.03
2018-04-28T21:19:38.008Z,15.96
2018-04-28T21:22:05.620Z,15.85
2018-04-28T21:24:33.311Z,15.91
2018-04-28T21:27:00.891Z,15.97
2018-04-28T21:29:28.540Z,16.01
2018-04-28T21:31:56.162Z,16.07
2018-04-28T21:34:23.958Z,16.14
2018-04-28T21:36:51.619Z,16.13
2018-04-28T21:39:19.298Z,16.15
2018-04-28T21:41:46.922Z,16.12
2018-04-28T21:44:14.568Z,16.10
2018-04-28T21:46:42.169Z,16.18
2018-04-28T21:49:09.846Z,16.18
2018-04-28T21:51:37.476Z,16.20
2018-04-28T21:54:05.113Z,16.25
2018-04-28T21:56:32.739Z,16.19
2018-04-28T21:59:00.402Z,16.11
2018-04-28T22:01:28.016Z,16.14
2018-04-28T22:03:55.655Z,16.11
2018-04-28T22:06:23.319Z,16.05
2018-04-28T22:08:50.946Z,16.12
2018-04-28T22:11:18.619Z,16.10
2018-04-28T22:13:46.237Z,16.17
2018-04-28T22:16:13.962Z,16.12
2018-04-28T22:18:41.653Z,16.05
2018-04-28T22:21:09.303Z,16.08
2018-04-28T22:23:36.935Z,16.15
2018-04-28T22:26:04.565Z,16.17
2018-04-28T22:28:32.256Z,16.18
2018-04-28T22:30:59.895Z,16.16
2018-04-28T22:33:27.514Z,16.17
2018-04-28T22:35:55.167Z,16.18
2018-04-28T22:38:22.737Z,16.20
2018-04-28T22:40:50.376Z,16.18
2018-04-28T22:43:17.977Z,16.13
2018-04-28T22:45:45.586Z,16.12
2018-04-28T22:48:13.213Z,15.92
2018-04-28T22:50:40.850Z,15.86
2018-04-28T22:53:08.470Z,15.83
2018-04-28T22:55:36.164Z,15.88
2018-04-28T22:58:03.787Z,15.81
2018-04-28T23:00:42.043Z,15.72
2018-04-28T23:03:09.685Z,15.77
2018-04-28T23:05:37.299Z,15.81
2018-04-28T23:08:05.002Z,15.84
2018-04-28T23:10:32.606Z,15.82
2018-04-28T23:13:00.261Z,15.77
2018-04-28T23:15:27.854Z,15.65
2018-04-28T23:17:55.533Z,15.54
2018-04-28T23:20:23.206Z,15.32
2018-04-28T23:22:50.804Z,15.31
2018-04-28T23:25:18.473Z,15.31
2018-04-28T23:27:46.071Z,15.33
2018-04-28T23:30:13.721Z,15.27
2018-04-28T23:32:41.300Z,15.14
2018-04-28T23:35:08.937Z,15.14
2018-04-28T23:37:36.644Z,15.12
2018-04-28T23:40:04.285Z,15.03
2018-04-28T23:42:31.888Z,15.03
2018-04-28T23:44:59.509Z,14.96
2018-04-28T23:47:27.095Z,14.93
2018-04-28T23:49:54.734Z,14.94
2018-04-28T23:52:22.327Z,14.93
2018-04-28T23:54:49.946Z,14.85
2018-04-28T23:57:17.540Z,14.85
2018-04-28T23:59:45.171Z,14.81
